createdAt,value
2022-08-28T00:00:47.696Z,17.68
2022-08-28T00:03:21.287Z,17.65
2022-08-28T00:05:51.343Z,17.59
2022-08-28T00:08:21.303Z,17.56
2022-08-28T00:10:51.488Z,17.42
2022-08-28T00:13:25.482Z,17.36
2022-08-28T00:16:00.857Z,17.44
2022-08-28T00:18:34.571Z,17.54
2022-08-28T00:21:05.792Z,17.71
2022-08-28T00:23:42.927Z,17.83
2022-08-28T00:26:34.533Z,17.90
2022-08-28T00:29:04.171Z,17.96
2022-08-28T00:31:34.231Z,17.90
2022-08-28T00:34:06.995Z,17.90
2022-08-28T00:36:37.650Z,18.05
2022-08-28T00:39:09.474Z,18.12
2022-08-28T00:41:42.869Z,18.01
2022-08-28T00:44:18.170Z,18.03
2022-08-28T00:46:52.039Z,18.10
2022-08-28T00:49:30.498Z,18.06
2022-08-28T00:52:10.794Z,18.01
2022-08-28T00:54:58.626Z,18.02
2022-08-28T00:57:36.855Z,17.98
2022-08-28T01:00:09.583Z,18.08
2022-08-28T01:02:39.767Z,18.20
2022-08-28T01:05:12.841Z,18.15
2022-08-28T01:07:43.150Z,18.21
2022-08-28T01:10:18.260Z,18.34
2022-08-28T01:12:49.973Z,18.37
2022-08-28T01:15:27.514Z,18.40
2022-08-28T01:18:08.072Z,18.35
2022-08-28T01:20:50.060Z,18.28
2022-08-28T01:23:37.198Z,18.25
2022-08-28T01:26:11.821Z,18.31
2022-08-28T01:28:42.555Z,18.35
2022-08-28T01:31:13.936Z,18.31
2022-08-28T01:33:45.855Z,18.24
2022-08-28T01:36:17.821Z,18.04
2022-08-28T01:38:55.639Z,18.06
2022-08-28T01:41:29.628Z,17.96
2022-08-28T01:43:59.800Z,17.86
2022-08-28T01:46:31.244Z,17.62
2022-08-28T01:49:02.261Z,17.47
2022-08-28T01:51:35.220Z,17.43
2022-08-28T01:54:08.821Z,17.45
2022-08-28T01:56:47.477Z,17.43
2022-08-28T01:59:18.523Z,17.38
2022-08-28T02:01:48.790Z,17.41
2022-08-28T02:04:19.070Z,17.43
2022-08-28T02:06:50.868Z,17.59
2022-08-28T02:09:20.962Z,17.53
2022-08-28T02:11:54.019Z,17.65
2022-08-28T02:14:25.103Z,17.74
2022-08-28T02:16:56.240Z,17.81
2022-08-28T02:19:26.272Z,17.84
2022-08-28T02:21:56.262Z,17.91
2022-08-28T02:24:26.279Z,17.88
2022-08-28T02:26:58.886Z,17.92
2022-08-28T02:29:29.167Z,18.01
2022-08-28T02:31:59.430Z,18.09
2022-08-28T02:34:29.590Z,18.03
2022-08-28T02:36:59.571Z,18.02
2022-08-28T02:39:29.924Z,18.11
2022-08-28T02:42:02.557Z,18.04
2022-08-28T02:44:32.525Z,18.05
2022-08-28T02:47:02.612Z,18.05
2022-08-28T02:49:36.130Z,18.01
2022-08-28T02:52:07.331Z,18.04
2022-08-28T02:54:38.809Z,17.98
2022-08-28T02:57:12.230Z,17.79
2022-08-28T02:59:43.421Z,17.73
2022-08-28T03:02:13.485Z,17.75
2022-08-28T03:04:44.553Z,17.72
2022-08-28T03:07:15.638Z,17.76
2022-08-28T03:09:46.297Z,17.69
2022-08-28T03:12:24.058Z,17.77
2022-08-28T03:14:54.556Z,17.81
2022-08-28T03:17:25.426Z,17.92
2022-08-28T03:19:55.418Z,17.92
2022-08-28T03:22:45.579Z,17.89
2022-08-28T03:25:13.049Z,17.97
2022-08-28T03:27:46.357Z,17.83
2022-08-28T03:30:18.198Z,17.90
2022-08-28T03:32:48.490Z,17.78
2022-08-28T03:35:20.350Z,17.77
2022-08-28T03:37:50.711Z,17.76
2022-08-28T03:40:21.517Z,17.73
2022-08-28T03:42:54.388Z,17.81
2022-08-28T03:45:24.823Z,17.93
2022-08-28T03:47:55.862Z,18.05
2022-08-28T03:50:26.226Z,17.97
2022-08-28T03:52:59.325Z,18.04
2022-08-28T03:55:29.536Z,17.99
2022-08-28T03:58:02.352Z,17.99
2022-08-28T04:00:32.326Z,17.96
2022-08-28T04:03:02.345Z,17.88
2022-08-28T04:05:35.051Z,17.84
2022-08-28T04:08:06.088Z,17.84
2022-08-28T04:10:37.294Z,17.85
2022-08-28T04:13:09.825Z,17.95
2022-08-28T04:15:40.030Z,17.81
2022-08-28T04:18:10.575Z,17.82
2022-08-28T04:20:41.474Z,17.85
2022-08-28T04:23:16.372Z,17.96
2022-08-28T04:25:46.375Z,17.94
2022-08-28T04:28:18.976Z,17.97
2022-08-28T04:30:49.913Z,18.07
2022-08-28T04:33:20.017Z,18.04
2022-08-28T04:35:50.021Z,18.17
2022-08-28T04:38:20.273Z,18.21
2022-08-28T04:40:50.376Z,18.18
2022-08-28T04:43:23.038Z,18.26
2022-08-28T04:45:53.202Z,18.04
2022-08-28T04:48:23.292Z,18.19
2022-08-28T04:50:53.442Z,18.15
2022-08-28T04:53:23.767Z,18.24
2022-08-28T04:55:59.002Z,18.39
2022-08-28T04:58:33.573Z,18.46
2022-08-28T05:01:11.293Z,18.38
2022-08-28T05:03:41.878Z,18.35
2022-08-28T05:06:12.004Z,18.42
2022-08-28T05:08:42.080Z,18.56
2022-08-28T05:11:24.507Z,18.70
2022-08-28T05:14:11.550Z,18.59
2022-08-28T05:16:48.955Z,18.62
2022-08-28T05:19:20.839Z,18.46
2022-08-28T05:21:52.177Z,18.43
2022-08-28T05:24:23.145Z,18.51
2022-08-28T05:26:53.424Z,18.37
2022-08-28T05:29:26.120Z,18.42
2022-08-28T05:31:56.199Z,18.34
2022-08-28T05:34:26.252Z,18.50
2022-08-28T05:36:56.307Z,18.59
2022-08-28T05:39:26.358Z,18.54
2022-08-28T05:41:56.430Z,18.62
2022-08-28T05:44:29.180Z,18.83
2022-08-28T05:46:59.431Z,19.00
2022-08-28T05:49:29.407Z,19.07
2022-08-28T05:51:59.624Z,19.20
2022-08-28T05:54:29.656Z,19.07
2022-08-28T05:56:59.654Z,19.36
2022-08-28T05:59:32.196Z,19.55
2022-08-28T06:02:04.383Z,19.78
2022-08-28T06:04:36.389Z,20.05
2022-08-28T06:07:08.154Z,20.28
2022-08-28T06:09:38.422Z,20.55
2022-08-28T06:12:08.811Z,20.70
2022-08-28T06:14:41.725Z,20.40
2022-08-28T06:17:12.040Z,20.03
2022-08-28T06:19:42.180Z,20.08
2022-08-28T06:22:14.867Z,19.82
2022-08-28T06:24:44.952Z,19.37
2022-08-28T06:27:15.008Z,19.35
2022-08-28T06:29:47.569Z,19.55
2022-08-28T06:32:18.045Z,19.78
2022-08-28T06:34:48.218Z,19.82
2022-08-28T06:37:18.209Z,19.81
2022-08-28T06:39:48.245Z,19.80
2022-08-28T06:42:18.180Z,20.06
2022-08-28T06:44:50.834Z,19.76
2022-08-28T06:47:20.808Z,19.97
2022-08-28T06:49:51.026Z,19.97
2022-08-28T06:52:21.154Z,20.25
2022-08-28T06:54:55.581Z,20.42
2022-08-28T06:57:26.274Z,20.78
2022-08-28T07:00:01.885Z,20.90
2022-08-28T07:02:33.149Z,21.28
2022-08-28T07:05:03.346Z,21.08
2022-08-28T07:07:33.299Z,20.88
2022-08-28T07:10:03.363Z,20.79
2022-08-28T07:12:33.365Z,21.03
2022-08-28T07:15:07.066Z,21.21
2022-08-28T07:17:37.033Z,21.44
2022-08-28T07:20:11.389Z,21.71
2022-08-28T07:22:42.061Z,21.83
2022-08-28T07:25:13.945Z,21.57
2022-08-28T07:27:43.884Z,21.78
2022-08-28T07:30:17.229Z,21.76
2022-08-28T07:32:49.253Z,21.67
2022-08-28T07:35:19.627Z,21.68
2022-08-28T07:37:50.894Z,21.60
2022-08-28T07:40:22.360Z,21.52
2022-08-28T07:43:04.982Z,22.06
2022-08-28T07:45:37.993Z,21.73
2022-08-28T07:48:11.511Z,21.46
2022-08-28T07:50:41.937Z,21.40
2022-08-28T07:53:12.457Z,21.75
2022-08-28T07:55:42.445Z,21.94
2022-08-28T07:58:12.707Z,22.37
2022-08-28T08:00:45.680Z,22.18
2022-08-28T08:03:16.373Z,21.99
2022-08-28T08:05:55.753Z,22.56
2022-08-28T08:08:26.236Z,23.05
2022-08-28T08:11:04.155Z,23.50
2022-08-28T08:13:38.134Z,24.14
2022-08-28T08:16:14.902Z,25.01
2022-08-28T08:18:45.705Z,25.84
2022-08-28T08:21:19.792Z,26.92
2022-08-28T08:23:51.458Z,28.07
2022-08-28T08:26:24.442Z,29.12
2022-08-28T08:28:55.480Z,29.31
2022-08-28T08:31:32.400Z,28.69
2022-08-28T08:34:05.747Z,28.29
2022-08-28T08:36:39.598Z,27.95
2022-08-28T08:39:10.357Z,28.74
2022-08-28T08:41:48.345Z,29.68
2022-08-28T08:44:33.658Z,30.57
2022-08-28T08:47:15.501Z,31.41
2022-08-28T08:49:55.641Z,33.25
2022-08-28T08:52:45.178Z,34.64
2022-08-28T08:55:28.933Z,35.84
2022-08-28T08:58:10.168Z,35.66
2022-08-28T09:00:51.868Z,35.54
2022-08-28T09:03:30.183Z,34.78
2022-08-28T09:06:06.455Z,34.31
2022-08-28T09:08:45.344Z,32.51
2022-08-28T09:11:32.408Z,30.70
2022-08-28T09:14:14.533Z,28.51
2022-08-28T09:16:49.794Z,26.79
2022-08-28T09:19:24.609Z,26.99
2022-08-28T09:21:55.612Z,25.43
2022-08-28T09:24:29.244Z,24.95
2022-08-28T09:27:03.444Z,25.08
2022-08-28T09:29:39.024Z,24.65
2022-08-28T09:32:27.502Z,24.47
2022-08-28T09:35:15.544Z,24.13
2022-08-28T09:37:46.821Z,23.98
2022-08-28T09:40:25.388Z,23.65
2022-08-28T09:43:22.178Z,23.81
2022-08-28T09:46:03.021Z,23.93
2022-08-28T09:48:40.191Z,23.76
2022-08-28T09:51:16.118Z,24.04
2022-08-28T09:54:02.265Z,24.20
2022-08-28T09:56:36.532Z,24.70
2022-08-28T09:59:11.809Z,24.87
2022-08-28T10:02:02.276Z,25.44
2022-08-28T10:04:50.684Z,26.00
2022-08-28T10:07:36.889Z,26.72
2022-08-28T10:10:23.158Z,27.43
2022-08-28T10:13:08.938Z,27.84
2022-08-28T10:16:04.907Z,28.10
2022-08-28T10:18:50.118Z,29.70
2022-08-28T10:21:30.068Z,30.71
2022-08-28T10:24:29.395Z,30.96
2022-08-28T10:27:12.631Z,33.03
2022-08-28T10:29:56.314Z,32.82
2022-08-28T10:33:05.350Z,33.63
2022-08-28T10:35:52.026Z,32.97
2022-08-28T10:38:35.943Z,33.17
2022-08-28T10:41:16.845Z,33.13
2022-08-28T10:43:51.377Z,32.12
2022-08-28T10:46:27.358Z,30.46
2022-08-28T10:49:05.887Z,30.31
2022-08-28T10:51:44.424Z,30.62
2022-08-28T10:54:26.634Z,31.50
2022-08-28T10:57:11.151Z,31.75
2022-08-28T10:59:44.592Z,32.51
2022-08-28T11:02:19.426Z,33.39
2022-08-28T11:04:51.859Z,32.67
2022-08-28T11:07:33.006Z,30.71
2022-08-28T11:10:20.701Z,29.92
2022-08-28T11:12:55.226Z,28.90
2022-08-28T11:15:47.623Z,28.13
2022-08-28T11:19:19.583Z,27.91
2022-08-28T11:21:55.816Z,28.17
2022-08-28T11:24:45.860Z,28.57
2022-08-28T11:27:27.484Z,28.03
2022-08-28T11:30:36.829Z,28.26
2022-08-28T11:33:32.605Z,29.64
2022-08-28T11:36:07.132Z,30.13
2022-08-28T11:39:09.196Z,29.11
2022-08-28T11:41:41.729Z,29.11
2022-08-28T11:44:43.742Z,29.69
2022-08-28T11:47:48.650Z,30.26
2022-08-28T11:50:35.786Z,31.89
2022-08-28T11:53:44.806Z,33.42
2022-08-28T11:56:53.312Z,33.93
2022-08-28T11:59:55.664Z,34.09
2022-08-28T12:03:06.669Z,34.16
2022-08-28T12:05:57.145Z,35.25
2022-08-28T12:09:15.496Z,34.72
2022-08-28T12:12:06.311Z,34.90
2022-08-28T12:15:02.503Z,33.80
2022-08-28T12:17:57.195Z,33.09
2022-08-28T12:21:03.913Z,31.57
2022-08-28T12:23:46.360Z,31.01
2022-08-28T12:26:30.034Z,31.36
2022-08-28T12:29:03.964Z,31.52
2022-08-28T12:32:28.027Z,32.26
2022-08-28T12:35:19.316Z,32.50
2022-08-28T12:38:03.851Z,31.46
2022-08-28T12:40:50.529Z,30.41
2022-08-28T12:43:35.694Z,30.26
2022-08-28T12:46:19.615Z,29.12
2022-08-28T12:48:56.712Z,29.16
2022-08-28T12:51:29.831Z,29.48
2022-08-28T12:54:03.858Z,29.04
2022-08-28T12:56:38.707Z,28.81
2022-08-28T12:59:37.814Z,28.20
2022-08-28T13:02:13.205Z,28.83
2022-08-28T13:04:53.869Z,29.62
2022-08-28T13:07:32.566Z,30.37
2022-08-28T13:10:08.951Z,31.52
2022-08-28T13:12:54.722Z,31.95
2022-08-28T13:15:51.849Z,32.22
2022-08-28T13:18:39.311Z,32.56
2022-08-28T13:21:34.854Z,31.60
2022-08-28T13:24:45.690Z,31.56
2022-08-28T13:27:27.152Z,32.18
2022-08-28T13:30:10.912Z,32.92
2022-08-28T13:32:43.641Z,32.83
2022-08-28T13:35:43.101Z,33.09
2022-08-28T13:38:16.547Z,32.14
2022-08-28T13:40:59.359Z,32.09
2022-08-28T13:43:32.829Z,32.24
2022-08-28T13:46:02.829Z,33.46
2022-08-28T13:48:35.670Z,33.46
2022-08-28T13:51:10.377Z,32.59
2022-08-28T13:53:41.839Z,33.37
2022-08-28T13:56:11.986Z,33.61
2022-08-28T13:58:42.034Z,33.92
2022-08-28T14:01:14.167Z,34.77
2022-08-28T14:03:45.440Z,33.39
2022-08-28T14:06:19.397Z,31.22
2022-08-28T14:08:52.694Z,30.67
2022-08-28T14:11:23.678Z,31.35
2022-08-28T14:13:55.175Z,30.18
2022-08-28T14:16:26.316Z,28.53
2022-08-28T14:19:04.078Z,28.46
2022-08-28T14:21:34.850Z,28.35
2022-08-28T14:24:06.553Z,28.67
2022-08-28T14:26:37.321Z,28.59
2022-08-28T14:29:12.146Z,29.88
2022-08-28T14:31:44.122Z,30.97
2022-08-28T14:34:21.456Z,30.67
2022-08-28T14:36:55.323Z,30.01
2022-08-28T14:39:27.778Z,29.47
2022-08-28T14:41:58.342Z,29.49
2022-08-28T14:44:28.763Z,30.13
2022-08-28T14:46:59.151Z,29.81
2022-08-28T14:49:31.900Z,28.85
2022-08-28T14:52:01.993Z,28.29
2022-08-28T14:54:31.978Z,29.42
2022-08-28T14:57:02.064Z,30.66
2022-08-28T14:59:34.689Z,31.00
2022-08-28T15:02:05.605Z,31.31
2022-08-28T15:04:38.258Z,30.78
2022-08-28T15:07:13.104Z,31.82
2022-08-28T15:09:45.869Z,31.89
2022-08-28T15:12:17.177Z,32.79
2022-08-28T15:14:54.761Z,31.91
2022-08-28T15:17:34.097Z,30.77
2022-08-28T15:20:08.692Z,32.64
2022-08-28T15:22:38.748Z,33.67
2022-08-28T15:25:09.821Z,35.32
2022-08-28T15:27:40.378Z,36.01
2022-08-28T15:30:12.276Z,35.85
2022-08-28T15:32:44.649Z,35.11
2022-08-28T15:35:17.319Z,35.34
2022-08-28T15:37:47.829Z,33.80
2022-08-28T15:40:30.576Z,35.00
2022-08-28T15:43:00.596Z,35.36
2022-08-28T15:45:30.668Z,35.63
2022-08-28T15:48:01.194Z,33.56
2022-08-28T15:50:34.072Z,33.54
2022-08-28T15:53:06.205Z,33.83
2022-08-28T15:55:37.265Z,33.14
2022-08-28T15:58:13.927Z,33.89
2022-08-28T16:00:44.996Z,34.85
2022-08-28T16:03:15.781Z,33.96
2022-08-28T16:05:49.403Z,32.80
2022-08-28T16:08:19.385Z,32.43
2022-08-28T16:10:51.782Z,34.07
2022-08-28T16:13:23.193Z,35.25
2022-08-28T16:15:53.265Z,35.17
2022-08-28T16:18:23.672Z,35.83
2022-08-28T16:20:56.300Z,36.03
2022-08-28T16:23:26.353Z,36.19
2022-08-28T16:25:56.467Z,35.10
2022-08-28T16:28:27.188Z,35.85
2022-08-28T16:30:57.664Z,35.15
2022-08-28T16:33:30.364Z,36.28
2022-08-28T16:36:04.168Z,36.62
2022-08-28T16:38:34.140Z,35.66
2022-08-28T16:41:04.156Z,35.92
2022-08-28T16:43:34.205Z,36.02
2022-08-28T16:46:04.247Z,35.38
2022-08-28T16:48:34.257Z,34.24
2022-08-28T16:51:07.466Z,33.56
2022-08-28T16:53:38.958Z,33.18
2022-08-28T16:56:09.856Z,31.32
2022-08-28T16:58:42.428Z,32.02
2022-08-28T17:01:14.290Z,31.42
2022-08-28T17:03:45.184Z,29.99
2022-08-28T17:06:23.408Z,29.12
2022-08-28T17:08:56.990Z,27.70
2022-08-28T17:11:28.449Z,27.06
2022-08-28T17:14:00.543Z,26.63
2022-08-28T17:16:32.426Z,26.10
2022-08-28T17:19:02.789Z,25.91
2022-08-28T17:21:47.860Z,25.76
2022-08-28T17:24:17.966Z,25.56
2022-08-28T17:26:48.066Z,25.78
2022-08-28T17:29:18.262Z,25.86
2022-08-28T17:31:48.320Z,25.73
2022-08-28T17:34:20.515Z,25.53
2022-08-28T17:36:54.318Z,25.28
2022-08-28T17:39:25.291Z,25.14
2022-08-28T17:41:55.334Z,24.88
2022-08-28T17:44:26.080Z,24.67
2022-08-28T17:46:56.187Z,24.45
2022-08-28T17:49:26.958Z,24.32
2022-08-28T17:51:59.529Z,24.05
2022-08-28T17:54:29.472Z,23.80
2022-08-28T17:57:00.168Z,23.50
2022-08-28T17:59:30.561Z,23.45
2022-08-28T18:02:01.168Z,23.32
2022-08-28T18:04:31.190Z,23.08
2022-08-28T18:07:03.750Z,22.93
2022-08-28T18:09:33.712Z,22.75
2022-08-28T18:12:04.173Z,22.50
2022-08-28T18:14:34.144Z,22.37
2022-08-28T18:17:04.542Z,22.18
2022-08-28T18:19:34.525Z,22.12
2022-08-28T18:22:07.510Z,21.95
2022-08-28T18:24:37.492Z,21.85
2022-08-28T18:27:08.825Z,21.69
2022-08-28T18:29:40.060Z,21.49
2022-08-28T18:32:10.357Z,21.43
2022-08-28T18:34:40.369Z,21.29
2022-08-28T18:37:12.979Z,21.18
2022-08-28T18:39:42.986Z,21.03
2022-08-28T18:42:14.795Z,21.03
2022-08-28T18:44:44.760Z,20.92
2022-08-28T18:47:14.781Z,20.90
2022-08-28T18:49:45.369Z,20.92
2022-08-28T18:52:18.014Z,20.81
2022-08-28T18:54:48.153Z,20.76
2022-08-28T18:57:18.813Z,20.70
2022-08-28T18:59:49.229Z,20.66
2022-08-28T19:02:19.943Z,20.58
2022-08-28T19:04:50.009Z,20.47
2022-08-28T19:07:22.716Z,20.42
2022-08-28T19:09:52.693Z,20.33
2022-08-28T19:12:22.702Z,20.26
2022-08-28T19:14:56.449Z,20.15
2022-08-28T19:17:27.516Z,20.07
2022-08-28T19:19:57.758Z,20.01
2022-08-28T19:22:30.372Z,20.00
2022-08-28T19:25:00.426Z,19.89
2022-08-28T19:27:30.482Z,19.95
2022-08-28T19:30:00.431Z,19.91
2022-08-28T19:32:31.427Z,19.96
2022-08-28T19:35:01.974Z,19.98
2022-08-28T19:37:34.611Z,19.98
2022-08-28T19:40:05.369Z,19.97
2022-08-28T19:42:36.430Z,19.95
2022-08-28T19:45:08.301Z,19.80
2022-08-28T19:47:38.483Z,19.81
2022-08-28T19:50:14.529Z,19.80
2022-08-28T19:52:48.445Z,19.72
2022-08-28T19:55:24.501Z,19.61
2022-08-28T19:57:55.006Z,19.55
2022-08-28T20:00:29.338Z,19.47
2022-08-28T20:02:59.512Z,19.28
2022-08-28T20:05:29.564Z,19.10
2022-08-28T20:08:02.168Z,19.00
2022-08-28T20:10:33.553Z,18.94
2022-08-28T20:13:03.552Z,18.93
2022-08-28T20:15:33.581Z,18.85
2022-08-28T20:18:03.621Z,18.85
2022-08-28T20:20:34.044Z,18.68
2022-08-28T20:23:07.499Z,18.56
2022-08-28T20:25:37.670Z,18.49
2022-08-28T20:28:08.598Z,18.48
2022-08-28T20:30:41.541Z,18.44
2022-08-28T20:33:11.781Z,18.28
2022-08-28T20:35:42.066Z,18.22
2022-08-28T20:38:14.790Z,18.16
2022-08-28T20:40:44.965Z,18.13
2022-08-28T20:43:14.987Z,18.10
2022-08-28T20:45:45.231Z,17.96
2022-08-28T20:48:15.535Z,17.85
2022-08-28T20:50:45.802Z,17.72
2022-08-28T20:53:29.365Z,17.74
2022-08-28T20:56:12.230Z,17.71
2022-08-28T20:58:42.226Z,17.71
2022-08-28T21:01:15.344Z,17.58
2022-08-28T21:03:45.713Z,17.49
2022-08-28T21:06:15.732Z,17.45
2022-08-28T21:08:49.925Z,17.40
2022-08-28T21:11:20.343Z,17.36
2022-08-28T21:13:50.300Z,17.34
2022-08-28T21:16:20.750Z,17.27
2022-08-28T21:19:12.118Z,17.13
2022-08-28T21:21:41.168Z,17.14
2022-08-28T21:24:16.879Z,17.04
2022-08-28T21:26:50.445Z,17.04
2022-08-28T21:29:24.504Z,16.98
2022-08-28T21:31:55.787Z,17.00
2022-08-28T21:34:25.786Z,17.01
2022-08-28T21:36:55.901Z,16.96
2022-08-28T21:39:28.540Z,16.93
2022-08-28T21:41:58.606Z,16.86
2022-08-28T21:44:29.060Z,16.75
2022-08-28T21:46:59.038Z,16.78
2022-08-28T21:49:29.216Z,16.68
2022-08-28T21:52:01.179Z,16.65
2022-08-28T21:54:33.834Z,16.66
2022-08-28T21:57:03.781Z,16.66
2022-08-28T21:59:38.041Z,16.66
2022-08-28T22:02:08.882Z,16.62
2022-08-28T22:04:39.900Z,16.53
2022-08-28T22:07:11.355Z,16.44
2022-08-28T22:09:45.168Z,16.43
2022-08-28T22:12:16.458Z,16.36
2022-08-28T22:14:46.716Z,16.40
2022-08-28T22:17:17.606Z,16.40
2022-08-28T22:19:47.605Z,16.37
2022-08-28T22:22:31.223Z,16.31
2022-08-28T22:25:03.865Z,16.20
2022-08-28T22:27:34.709Z,16.15
2022-08-28T22:30:04.826Z,16.17
2022-08-28T22:32:34.858Z,16.22
2022-08-28T22:35:06.605Z,16.25
2022-08-28T22:37:36.601Z,16.14
2022-08-28T22:40:13.233Z,16.04
2022-08-28T22:42:44.156Z,16.01
2022-08-28T22:45:14.688Z,15.99
2022-08-28T22:47:44.755Z,16.01
2022-08-28T22:50:14.919Z,16.02
2022-08-28T22:52:48.330Z,15.94
2022-08-28T22:55:23.323Z,15.84
2022-08-28T22:57:54.018Z,15.83
2022-08-28T23:00:28.606Z,15.82
2022-08-28T23:03:01.193Z,15.76
2022-08-28T23:05:32.816Z,15.64
2022-08-28T23:08:02.949Z,15.67
2022-08-28T23:10:57.446Z,15.63
2022-08-28T23:13:26.117Z,15.64
2022-08-28T23:15:56.300Z,15.66
2022-08-28T23:18:26.317Z,15.68
2022-08-28T23:20:58.450Z,15.61
2022-08-28T23:23:28.834Z,15.58
2022-08-28T23:26:01.428Z,15.57
2022-08-28T23:28:31.604Z,15.54
2022-08-28T23:31:01.584Z,15.51
2022-08-28T23:33:31.566Z,15.41
2022-08-28T23:36:02.772Z,15.37
2022-08-28T23:38:32.855Z,15.34
2022-08-28T23:41:05.882Z,15.30
2022-08-28T23:43:37.255Z,15.25
2022-08-28T23:46:08.467Z,15.24
2022-08-28T23:48:39.180Z,15.30
2022-08-28T23:51:12.353Z,15.30
2022-08-28T23:53:44.550Z,15.28
2022-08-28T23:56:17.228Z,15.18
2022-08-28T23:58:48.270Z,15.09
